Terminal Aerodrome Forecast
Issued by NWS

Home | Current Version | Previous Version | Graphics & Text | Print | Product List | Glossary On
Versions: 1 2 3 4 5 6 7 8 9 10 11 12 13 14 15 16 17
000
FTUS43 KOAX 231134
TAFCDR
TAF
KCDR 231134Z 2312/2412 04015KT 1 1/2SM -SN BR OVC008
      TEMPO 2312/2316 1/2SM SN FG OVC004
     FM231600 05018G28KT 1/2SM SN BLSN BKN002 OVC005
     FM240200 03015KT 1 1/2SM -SN BR OVC007=

USA.gov is the U.S. government's official web portal to all federal, state and local government web resources and services.